Time;durP1;ratioP1;P1;durP2;ratioP2;P2;SDS_P1;SDS_P2;PMS_P1;PMS_P2;Temp;Humidity;BMP_temperature;BMP_pressure;BME280_temperature;BME280_humidity;BME280_pressure;Samples;Min_cycle;Max_cycle;Signal;HPM_P1;HPM_P2
2022/11/28 00:01:03;;;;;;;;;;;;;;;;;;4880819;29;19934;-91
2022/11/28 00:03:28;;;;;;;;;;;;;;;;;;4896285;29;19923;-91
2022/11/28 00:05:54;;;;;;;;;;;;;;;;;;4896332;29;19931;-92
2022/11/28 00:08:20;;;;;;;;;;;;;;;;;;4880959;29;20302;-91
2022/11/28 00:10:46;;;;;;;;;;;;;;;;;;4880647;29;20386;-91
2022/11/28 00:13:12;;;;;;;;;;;;;;;;;;4896293;29;19924;-92
2022/11/28 00:15:38;;;;;;;;;;;;;;;;;;4880963;29;19931;-92
2022/11/28 00:18:04;;;;;;;;;;;;;;;;;;4896269;29;20387;-91
2022/11/28 00:20:30;;;;;;;;;;;;;;;;;;4896230;29;19924;-92
2022/11/28 00:22:56;;;;;;;;;;;;;;;;;;4880640;29;20056;-91
2022/11/28 00:25:22;;;;;;;;;;;;;;;;;;4880619;29;19923;-91
2022/11/28 00:27:48;;;;;;;;;;;;;;;;;;4880475;29;20364;-91
2022/11/28 00:30:13;;;;;;;;;;;;;;;;;;4896427;29;20421;-92
2022/11/28 00:32:39;;;;;;;;;;;;;;;;;;4880863;29;20406;-92
2022/11/28 00:35:05;;;;;;;;;;;;;;;;;;4880960;29;19959;-92
2022/11/28 00:37:31;;;;;;;;;;;;;;;;;;4884237;29;20294;-91
2022/11/28 00:39:57;;;;;;;;;;;;;;;;;;4900198;29;20776;-92
2022/11/28 00:42:23;;;;;;;;;;;;;;;;;;4899520;29;19934;-90
2022/11/28 00:44:49;;;;;;;;;;;;;;;;;;4884328;29;20010;-92
2022/11/28 00:47:15;;;;;;;;;;;;;;;;;;4884328;29;19962;-91
2022/11/28 00:49:41;;;;;;;;;;;;;;;;;;4884361;29;19923;-91
2022/11/28 00:52:07;;;;;;;;;;;;;;;;;;4884029;29;19971;-91
2022/11/28 00:54:32;;;;;;;;;;;;;;;;;;4884006;29;19975;-91
2022/11/28 00:56:58;;;;;;;;;;;;;;;;;;4899682;29;19924;-92
2022/11/28 00:59:24;;;;;;;;;;;;;;;;;;4883966;29;19923;-91
2022/11/28 01:01:50;;;;;;;;;;;;;;;;;;4899409;29;19928;-91
2022/11/28 01:04:16;;;;;;;;;;;;;;;;;;4899600;29;20384;-92
2022/11/28 01:06:42;;;;;;;;;;;;;;;;;;4899874;29;19924;-91
2022/11/28 01:09:08;;;;;;;;;;;;;;;;;;4899290;29;19924;-92
2022/11/28 01:11:34;;;;;;;;;;;;;;;;;;4899498;29;19923;-92
2022/11/28 01:14:00;;;;;;;;;;;;;;;;;;4899237;29;19923;-92
2022/11/28 01:16:26;;;;;;;;;;;;;;;;;;4883622;29;20299;-92
2022/11/28 01:18:52;;;;;;;;;;;;;;;;;;4899453;29;19945;-92
2022/11/28 01:21:18;;;;;;;;;;;;;;;;;;4883420;29;20368;-92
2022/11/28 01:23:44;;;;;;;;;;;;;;;;;;4899105;29;20014;-92
2022/11/28 01:26:10;;;;;;;;;;;;;;;;;;4884654;29;19923;-92
2022/11/28 01:28:35;;;;;;;;;;;;;;;;;;4883950;29;20355;-92
2022/11/28 01:31:01;;;;;;;;;;;;;;;;;;4899196;29;20146;-92
2022/11/28 01:33:27;;;;;;;;;;;;;;;;;;4899045;29;20063;-92
2022/11/28 01:35:53;;;;;;;;;;;;;;;;;;4883551;29;20268;-92
2022/11/28 01:38:19;;;;;;;;;;;;;;;;;;4899045;29;19927;-92
2022/11/28 01:40:45;;;;;;;;;;;;;;;;;;4883544;29;19928;-91
2022/11/28 01:43:11;;;;;;;;;;;;;;;;;;4898627;29;19932;-91
2022/11/28 01:45:38;;;;;;;;;;;;;;;;;;4883906;29;19993;-91
2022/11/28 01:48:04;;;;;;;;;;;;;;;;;;4882507;29;19932;-91
2022/11/28 01:50:30;;;;;;;;;;;;;;;;;;4898776;29;20359;-92
2022/11/28 01:52:56;;;;;;;;;;;;;;;;;;4883337;29;19927;-92
2022/11/28 01:55:22;;;;;;;;;;;;;;;;;;4882813;29;20018;-92
2022/11/28 01:57:48;;;;;;;;;;;;;;;;;;4882943;29;19971;-92
2022/11/28 02:00:14;;;;;;;;;;;;;;;;;;4882980;29;19924;-92
2022/11/28 02:02:40;;;;;;;;;;;;;;;;;;4898438;29;19951;-92
2022/11/28 02:05:06;;;;;;;;;;;;;;;;;;4898561;29;19971;-92
2022/11/28 02:07:33;;;;;;;;;;;;;;;;;;4898526;29;20351;-92
2022/11/28 02:09:59;;;;;;;;;;;;;;;;;;4898670;29;19942;-92
2022/11/28 02:12:25;;;;;;;;;;;;;;;;;;4882969;29;20360;-92
2022/11/28 02:14:50;;;;;;;;;;;;;;;;;;4898888;29;19998;-92
2022/11/28 02:17:16;;;;;;;;;;;;;;;;;;4898307;29;19928;-92
2022/11/28 02:19:42;;;;;;;;;;;;;;;;;;4882857;29;19923;-92
2022/11/28 02:22:08;;;;;;;;;;;;;;;;;;4898222;29;20384;-92
2022/11/28 02:24:34;;;;;;;;;;;;;;;;;;4898097;29;20011;-93
2022/11/28 02:27:00;;;;;;;;;;;;;;;;;;4882758;29;20022;-92
2022/11/28 02:29:26;;;;;;;;;;;;;;;;;;4898061;29;19945;-92
2022/11/28 02:31:52;;;;;;;;;;;;;;;;;;4882381;29;20426;-93
2022/11/28 02:34:18;;;;;;;;;;;;;;;;;;4882547;29;20315;-92
2022/11/28 02:36:44;;;;;;;;;;;;;;;;;;4882736;29;20292;-93
2022/11/28 02:39:10;;;;;;;;;;;;;;;;;;4882237;29;19924;-92
2022/11/28 02:41:35;;;;;;;;;;;;;;;;;;4897715;29;20276;-92
2022/11/28 02:44:01;;;;;;;;;;;;;;;;;;4882111;29;19928;-92
2022/11/28 02:46:27;;;;;;;;;;;;;;;;;;4882140;29;19935;-92
2022/11/28 02:48:53;;;;;;;;;;;;;;;;;;4897738;29;19931;-92
2022/11/28 02:51:19;;;;;;;;;;;;;;;;;;4897634;29;19934;-93
2022/11/28 02:53:45;;;;;;;;;;;;;;;;;;4897788;29;19980;-92
2022/11/28 02:56:13;;;;;;;;;;;;;;;;;;4882533;29;19971;-93
2022/11/28 02:58:38;;;;;;;;;;;;;;;;;;4882406;29;20323;-93
2022/11/28 03:01:04;;;;;;;;;;;;;;;;;;4882034;29;19935;-93
2022/11/28 03:03:30;;;;;;;;;;;;;;;;;;4882026;29;19930;-93
2022/11/28 03:06:16;;;;;;;;;;;;;;;;;;5111492;27;19947;-91
2022/11/28 03:08:42;;;;;;;;;;;;;;;;;;5092677;28;19924;-91
2022/11/28 03:11:08;;;;;;;;;;;;;;;;;;5109954;28;19920;-92
2022/11/28 03:13:34;;;;;;;;;;;;;;;;;;5110036;28;19920;-91
2022/11/28 03:16:00;;;;;;;;;;;;;;;;;;5092920;28;19920;-91
2022/11/28 03:18:26;;;;;;;;;;;;;;;;;;5092970;28;19976;-91
2022/11/28 03:20:52;;;;;;;;;;;;;;;;;;5092737;28;19920;-91
2022/11/28 03:23:18;;;;;;;;;;;;;;;;;;5109969;28;20023;-91
2022/11/28 03:25:44;;;;;;;;;;;;;;;;;;5109745;28;19977;-91
2022/11/28 03:28:10;;;;;;;;;;;;;;;;;;5092745;28;19981;-91
2022/11/28 03:30:35;;;;;;;;;;;;;;;;;;5109785;28;19920;-92
2022/11/28 03:33:01;;;;;;;;;;;;;;;;;;5109486;28;19924;-91
2022/11/28 03:35:27;;;;;;;;;;;;;;;;;;5092125;28;19927;-91
2022/11/28 03:37:53;;;;;;;;;;;;;;;;;;5091866;28;19920;-90
2022/11/28 03:40:19;;;;;;;;;;;;;;;;;;5091729;28;20301;-90
2022/11/28 03:42:45;;;;;;;;;;;;;;;;;;5091859;28;19920;-89
2022/11/28 03:45:11;;;;;;;;;;;;;;;;;;5091480;28;19920;-90
2022/11/28 03:47:37;;;;;;;;;;;;;;;;;;5091775;28;19975;-90
2022/11/28 03:50:03;;;;;;;;;;;;;;;;;;5108948;28;20353;-90
2022/11/28 03:52:29;;;;;;;;;;;;;;;;;;5108901;28;20256;-90
2022/11/28 03:54:55;;;;;;;;;;;;;;;;;;5109048;28;19920;-90
2022/11/28 03:57:21;;;;;;;;;;;;;;;;;;5091874;28;19920;-90
2022/11/28 03:59:47;;;;;;;;;;;;;;;;;;5091230;28;20375;-91
2022/11/28 04:02:13;;;;;;;;;;;;;;;;;;5108420;28;19943;-90
2022/11/28 04:04:39;;;;;;;;;;;;;;;;;;5098800;28;19924;-90
2022/11/28 04:07:05;;;;;;;;;;;;;;;;;;5129260;28;20255;-90
2022/11/28 04:09:30;;;;;;;;;;;;;;;;;;5128898;27;19926;-91
2022/11/28 04:11:56;;;;;;;;;;;;;;;;;;5128540;27;19968;-90
2022/11/28 04:14:22;;;;;;;;;;;;;;;;;;5129125;27;19923;-90
2022/11/28 04:16:48;;;;;;;;;;;;;;;;;;5119483;28;20320;-91
2022/11/28 04:19:14;;;;;;;;;;;;;;;;;;5115155;28;19920;-90
2022/11/28 04:21:40;;;;;;;;;;;;;;;;;;5098206;28;20467;-90
2022/11/28 04:24:06;;;;;;;;;;;;;;;;;;5097635;28;19923;-90
2022/11/28 04:26:32;;;;;;;;;;;;;;;;;;5114717;28;19919;-91
2022/11/28 04:28:58;;;;;;;;;;;;;;;;;;5114610;28;19920;-91
2022/11/28 04:31:24;;;;;;;;;;;;;;;;;;5097953;28;19920;-91
2022/11/28 04:33:50;;;;;;;;;;;;;;;;;;5115234;28;19926;-91
2022/11/28 04:36:16;;;;;;;;;;;;;;;;;;5115035;28;20487;-90
2022/11/28 04:38:41;;;;;;;;;;;;;;;;;;5097695;28;19919;-91
2022/11/28 04:41:08;;;;;;;;;;;;;;;;;;5114521;28;19930;-91
2022/11/28 04:43:34;;;;;;;;;;;;;;;;;;5097620;28;19968;-91
2022/11/28 04:45:59;;;;;;;;;;;;;;;;;;5114382;28;19923;-91
2022/11/28 04:48:25;;;;;;;;;;;;;;;;;;5097653;28;20350;-91
2022/11/28 04:50:51;;;;;;;;;;;;;;;;;;5097337;28;19972;-90
2022/11/28 04:53:17;;;;;;;;;;;;;;;;;;5097412;28;20403;-92
2022/11/28 04:55:43;;;;;;;;;;;;;;;;;;5114868;28;19933;-91
2022/11/28 04:58:09;;;;;;;;;;;;;;;;;;5097287;28;19920;-91
2022/11/28 05:00:35;;;;;;;;;;;;;;;;;;5114558;28;20437;-91
2022/11/28 05:03:01;;;;;;;;;;;;;;;;;;5097490;28;19924;-92
2022/11/28 05:05:28;;;;;;;;;;;;;;;;;;5097065;28;19928;-91
2022/11/28 05:07:54;;;;;;;;;;;;;;;;;;5097334;28;19920;-92
2022/11/28 05:10:20;;;;;;;;;;;;;;;;;;5096939;28;19926;-92
2022/11/28 05:12:46;;;;;;;;;;;;;;;;;;5096827;28;19920;-91
2022/11/28 05:15:17;;;;;;;;;;;;;;;;;;5097182;28;20010;-91
2022/11/28 05:17:43;;;;;;;;;;;;;;;;;;5114483;28;19941;-91
2022/11/28 05:20:09;;;;;;;;;;;;;;;;;;5097048;28;20456;-92
2022/11/28 05:22:35;;;;;;;;;;;;;;;;;;5096465;28;19919;-92
2022/11/28 05:25:01;;;;;;;;;;;;;;;;;;5096764;28;19927;-92
2022/11/28 05:27:27;;;;;;;;;;;;;;;;;;5095917;28;20394;-92
2022/11/28 05:29:53;;;;;;;;;;;;;;;;;;5096464;28;19927;-92
2022/11/28 05:32:19;;;;;;;;;;;;;;;;;;5096362;28;20282;-91
2022/11/28 05:34:45;;;;;;;;;;;;;;;;;;5096656;28;19919;-92
2022/11/28 05:37:11;;;;;;;;;;;;;;;;;;5096866;28;19927;-92
2022/11/28 05:39:39;;;;;;;;;;;;;;;;;;5096964;28;19923;-92
2022/11/28 05:42:05;;;;;;;;;;;;;;;;;;5096572;28;19932;-91
2022/11/28 05:44:31;;;;;;;;;;;;;;;;;;5096552;28;19923;-93
2022/11/28 05:46:57;;;;;;;;;;;;;;;;;;5113980;28;20356;-92
2022/11/28 05:49:24;;;;;;;;;;;;;;;;;;5096416;28;19969;-92
2022/11/28 05:51:50;;;;;;;;;;;;;;;;;;5096583;28;19920;-92
2022/11/28 05:54:16;;;;;;;;;;;;;;;;;;5096134;28;19920;-91
2022/11/28 05:56:42;;;;;;;;;;;;;;;;;;5096541;28;19924;-92
2022/11/28 05:59:08;;;;;;;;;;;;;;;;;;5096439;28;19920;-92
2022/11/28 06:01:34;;;;;;;;;;;;;;;;;;5113258;28;19927;-92
2022/11/28 06:04:00;;;;;;;;;;;;;;;;;;5096058;28;19980;-92
2022/11/28 06:06:26;;;;;;;;;;;;;;;;;;5096101;28;20279;-91
2022/11/28 06:08:52;;;;;;;;;;;;;;;;;;5113286;28;19919;-92
2022/11/28 06:11:17;;;;;;;;;;;;;;;;;;5096086;28;20435;-93
2022/11/28 06:13:43;;;;;;;;;;;;;;;;;;5113061;28;19920;-93
2022/11/28 06:16:09;;;;;;;;;;;;;;;;;;5096259;28;19927;-92
2022/11/28 06:18:35;;;;;;;;;;;;;;;;;;5096025;28;19919;-93
2022/11/28 06:21:01;;;;;;;;;;;;;;;;;;5095841;28;20424;-91
2022/11/28 06:23:27;;;;;;;;;;;;;;;;;;5095512;28;19924;-92
2022/11/28 06:25:53;;;;;;;;;;;;;;;;;;5095871;28;19931;-92
2022/11/28 06:28:19;;;;;;;;;;;;;;;;;;5095216;28;19927;-91
2022/11/28 06:30:45;;;;;;;;;;;;;;;;;;5095888;28;20366;-92
2022/11/28 06:33:11;;;;;;;;;;;;;;;;;;5095693;28;19920;-91
2022/11/28 06:35:37;;;;;;;;;;;;;;;;;;5112353;28;20019;-91
2022/11/28 06:38:03;;;;;;;;;;;;;;;;;;5112348;28;19920;-92
2022/11/28 06:40:29;;;;;;;;;;;;;;;;;;5111948;28;19919;-91
2022/11/28 06:42:54;;;;;;;;;;;;;;;;;;5112807;28;20328;-91
2022/11/28 06:45:20;;;;;;;;;;;;;;;;;;5095113;28;19928;-91
2022/11/28 06:47:47;;;;;;;;;;;;;;;;;;5112422;28;19923;-92
2022/11/28 06:50:12;;;;;;;;;;;;;;;;;;5112114;28;20015;-92
2022/11/28 06:52:39;;;;;;;;;;;;;;;;;;5112249;28;19975;-92
2022/11/28 06:55:04;;;;;;;;;;;;;;;;;;5095183;28;19927;-92
2022/11/28 06:57:31;;;;;;;;;;;;;;;;;;5112494;28;19920;-92
2022/11/28 06:59:57;;;;;;;;;;;;;;;;;;5095456;28;20378;-92
2022/11/28 07:02:23;;;;;;;;;;;;;;;;;;5095104;28;19985;-92
2022/11/28 07:04:49;;;;;;;;;;;;;;;;;;5095052;28;19924;-93
2022/11/28 07:07:15;;;;;;;;;;;;;;;;;;5095268;28;20384;-93
2022/11/28 07:09:41;;;;;;;;;;;;;;;;;;5095745;28;19944;-92
2022/11/28 07:12:07;;;;;;;;;;;;;;;;;;5112582;28;19924;-93
2022/11/28 07:14:33;;;;;;;;;;;;;;;;;;5095376;28;20385;-92
2022/11/28 07:16:59;;;;;;;;;;;;;;;;;;5095403;28;19945;-93
2022/11/28 07:19:25;;;;;;;;;;;;;;;;;;5095232;28;19948;-92
2022/11/28 07:21:51;;;;;;;;;;;;;;;;;;5095006;28;19985;-92
2022/11/28 07:24:17;;;;;;;;;;;;;;;;;;5095270;28;20370;-92
2022/11/28 07:26:43;;;;;;;;;;;;;;;;;;5095230;28;20393;-93
2022/11/28 07:29:09;;;;;;;;;;;;;;;;;;5094982;28;20358;-93
2022/11/28 07:31:37;;;;;;;;;;;;;;;;;;5095685;28;20324;-92
2022/11/28 07:34:04;;;;;;;;;;;;;;;;;;5112921;28;19919;-95
2022/11/28 07:36:31;;;;;;;;;;;;;;;;;;5095450;28;19927;-93
2022/11/28 07:38:57;;;;;;;;;;;;;;;;;;5095523;28;19973;-95
2022/11/28 07:41:26;;;;;;;;;;;;;;;;;;5113210;28;19927;-93
2022/11/28 07:44:03;;;;;;;;;;;;;;;;;;;;;
2022/11/28 07:46:29;;;;;;;;;;;;;;;;;;5112066;28;19949;-94
2022/11/28 07:48:55;;;;;;;;;;;;;;;;;;5095215;28;19919;-95
2022/11/28 07:51:27;;;;;;;;;;;;;;;;;;5099111;28;19923;-96
2022/11/28 07:53:59;;;;;;;;;;;;;;;;;;5100410;28;19920;-96
2022/11/28 07:56:26;;;;;;;;;;;;;;;;;;5098939;28;19920;-96
2022/11/28 07:58:52;;;;;;;;;;;;;;;;;;5098825;28;20022;-93
2022/11/28 08:01:18;;;;;;;;;;;;;;;;;;5098418;28;19967;-91
2022/11/28 08:03:44;;;;;;;;;;;;;;;;;;5098325;28;19982;-91
2022/11/28 08:06:10;;;;;;;;;;;;;;;;;;5114824;28;20017;-90
2022/11/28 08:08:36;;;;;;;;;;;;;;;;;;5115075;28;19942;-94
2022/11/28 08:11:02;;;;;;;;;;;;;;;;;;5098217;28;19926;-92
2022/11/28 08:13:29;;;;;;;;;;;;;;;;;;5098046;28;19920;-92
2022/11/28 08:15:55;;;;;;;;;;;;;;;;;;5098205;28;19926;-91
2022/11/28 08:18:21;;;;;;;;;;;;;;;;;;5098095;28;20382;-91
2022/11/28 08:20:47;;;;;;;;;;;;;;;;;;5114679;28;19930;-91
2022/11/28 08:23:12;;;;;;;;;;;;;;;;;;5114775;28;20026;-91
2022/11/28 08:25:38;;;;;;;;;;;;;;;;;;5114799;28;19963;-91
2022/11/28 08:28:04;;;;;;;;;;;;;;;;;;5097752;28;19963;-91
2022/11/28 08:30:30;;;;;;;;;;;;;;;;;;5097276;28;19920;-89
2022/11/28 08:32:59;;;;;;;;;;;;;;;;;;5114314;28;20444;-90
2022/11/28 08:35:25;;;;;;;;;;;;;;;;;;5114700;28;19926;-89
2022/11/28 08:37:51;;;;;;;;;;;;;;;;;;5097254;28;20014;-91
2022/11/28 08:40:17;;;;;;;;;;;;;;;;;;5097076;28;19924;-91
2022/11/28 08:42:43;;;;;;;;;;;;;;;;;;5114395;28;20003;-91
2022/11/28 08:45:09;;;;;;;;;;;;;;;;;;5095431;28;19924;-91
2022/11/28 08:47:35;;;;;;;;;;;;;;;;;;5096851;28;19920;-92
2022/11/28 08:50:01;;;;;;;;;;;;;;;;;;5097007;28;19930;-91
2022/11/28 08:52:27;;;;;;;;;;;;;;;;;;5096525;28;20006;-91
2022/11/28 08:54:53;;;;;;;;;;;;;;;;;;5096972;28;19939;-91
2022/11/28 08:57:19;;;;;;;;;;;;;;;;;;5096905;28;20273;-91
2022/11/28 08:59:45;;;;;;;;;;;;;;;;;;5096645;28;19919;-91
2022/11/28 09:02:12;;;;;;;;;;;;;;;;;;5096470;28;20378;-90
2022/11/28 09:04:38;;;;;;;;;;;;;;;;;;5113500;28;19923;-89
2022/11/28 09:07:04;;;;;;;;;;;;;;;;;;5113533;28;20021;-90
2022/11/28 09:09:30;;;;;;;;;;;;;;;;;;5096462;28;20378;-89
2022/11/28 09:11:56;;;;;;;;;;;;;;;;;;5113420;28;19919;-89
2022/11/28 09:14:22;;;;;;;;;;;;;;;;;;5113347;28;19920;-89
2022/11/28 09:16:49;;;;;;;;;;;;;;;;;;5114079;28;19942;-88
2022/11/28 09:19:14;;;;;;;;;;;;;;;;;;5096743;28;19919;-89
2022/11/28 09:21:40;;;;;;;;;;;;;;;;;;5096663;28;20385;-89
2022/11/28 09:24:06;;;;;;;;;;;;;;;;;;5096469;28;20394;-90
2022/11/28 09:26:32;;;;;;;;;;;;;;;;;;5096393;28;19923;-90
2022/11/28 09:28:58;;;;;;;;;;;;;;;;;;5096312;28;20045;-91
2022/11/28 09:31:24;;;;;;;;;;;;;;;;;;5096570;28;19920;-90
2022/11/28 09:33:50;;;;;;;;;;;;;;;;;;5096074;28;19927;-90
2022/11/28 09:36:16;;;;;;;;;;;;;;;;;;5113055;28;19926;-90
2022/11/28 09:38:42;;;;;;;;;;;;;;;;;;5096071;28;19920;-91
2022/11/28 09:41:08;;;;;;;;;;;;;;;;;;5096840;28;19920;-91
2022/11/28 09:43:34;;;;;;;;;;;;;;;;;;5095884;28;19926;-91
2022/11/28 09:46:00;;;;;;;;;;;;;;;;;;5112911;28;20456;-91
2022/11/28 09:48:26;;;;;;;;;;;;;;;;;;5095961;28;20464;-91
2022/11/28 09:50:52;;;;;;;;;;;;;;;;;;5096225;28;19919;-91
2022/11/28 09:53:18;;;;;;;;;;;;;;;;;;5095851;28;19969;-91
2022/11/28 09:55:45;;;;;;;;;;;;;;;;;;5096091;28;20321;-92
2022/11/28 09:58:11;;;;;;;;;;;;;;;;;;5096355;28;19954;-91
2022/11/28 10:00:37;;;;;;;;;;;;;;;;;;5095752;28;19965;-90
2022/11/28 10:03:03;;;;;;;;;;;;;;;;;;5113453;28;20707;-89
2022/11/28 10:05:29;;;;;;;;;;;;;;;;;;5112417;28;20015;-92
2022/11/28 10:07:55;;;;;;;;;;;;;;;;;;5113064;28;19927;-90
2022/11/28 10:10:21;;;;;;;;;;;;;;;;;;5112491;28;19958;-89
2022/11/28 10:12:46;;;;;;;;;;;;;;;;;;5095313;28;19932;-90
2022/11/28 10:15:12;;;;;;;;;;;;;;;;;;5094726;28;19942;-90
2022/11/28 10:17:38;;;;;;;;;;;;;;;;;;5095656;28;20006;-89
2022/11/28 10:20:04;;;;;;;;;;;;;;;;;;5095381;28;19920;-92
2022/11/28 10:22:30;;;;;;;;;;;;;;;;;;5112318;28;20279;-92
2022/11/28 10:24:58;;;;;;;;;;;;;;;;;;5095842;28;19953;-92
2022/11/28 10:27:25;;;;;;;;;;;;;;;;;;5097988;28;19930;-89
2022/11/28 10:29:50;;;;;;;;;;;;;;;;;;5099079;28;19978;-90
2022/11/28 10:32:16;;;;;;;;;;;;;;;;;;5119297;28;19923;-90
2022/11/28 10:34:44;;;;;;;;;;;;;;;;;;5109585;28;19999;-94
2022/11/28 10:39:48;;;;;;;;;;;;;;;;;;6148542;22;20936;-94
2022/11/28 10:44:50;;;;;;;;;;;;;;;;;;5439276;22;19931;-90
2022/11/28 10:47:16;;;;;;;;;;;;;;;;;;5038163;28;19920;-90
2022/11/28 10:49:42;;;;;;;;;;;;;;;;;;5054836;28;19970;-91
2022/11/28 10:52:08;;;;;;;;;;;;;;;;;;5039156;28;20277;-90
2022/11/28 10:54:33;;;;;;;;;;;;;;;;;;5054512;28;19962;-91
2022/11/28 10:56:59;;;;;;;;;;;;;;;;;;5054440;28;19920;-89
2022/11/28 10:59:25;;;;;;;;;;;;;;;;;;5037769;28;19921;-90
2022/11/28 11:01:51;;;;;;;;;;;;;;;;;;5054422;28;20224;-92
2022/11/28 11:04:17;;;;;;;;;;;;;;;;;;5037864;28;20092;-92
2022/11/28 11:06:43;;;;;;;;;;;;;;;;;;5038193;28;19924;-92
2022/11/28 11:09:09;;;;;;;;;;;;;;;;;;5037927;28;19963;-93
2022/11/28 11:11:38;;;;;;;;;;;;;;;;;;5038790;28;19921;-91
2022/11/28 11:14:04;;;;;;;;;;;;;;;;;;5039623;28;19927;-93
2022/11/28 11:16:30;;;;;;;;;;;;;;;;;;5054943;28;20007;-92
2022/11/28 11:18:55;;;;;;;;;;;;;;;;;;5038385;28;19920;-92
2022/11/28 11:21:21;;;;;;;;;;;;;;;;;;5037655;28;20436;-93
2022/11/28 11:23:47;;;;;;;;;;;;;;;;;;5037823;28;19947;-93
2022/11/28 11:26:13;;;;;;;;;;;;;;;;;;5055620;28;19931;-89
2022/11/28 11:28:39;;;;;;;;;;;;;;;;;;5041693;28;19928;-92
2022/11/28 11:31:05;;;;;;;;;;;;;;;;;;5058192;28;19925;-91
2022/11/28 11:33:31;;;;;;;;;;;;;;;;;;5041594;28;19970;-92
2022/11/28 11:35:57;;;;;;;;;;;;;;;;;;5041586;28;19920;-92
2022/11/28 11:38:23;;;;;;;;;;;;;;;;;;5040988;28;20019;-92
2022/11/28 11:40:49;;;;;;;;;;;;;;;;;;5058137;28;19927;-91
2022/11/28 11:43:15;;;;;;;;;;;;;;;;;;5041406;28;19921;-90
2022/11/28 11:45:41;;;;;;;;;;;;;;;;;;5041091;28;19925;-90
2022/11/28 11:48:07;;;;;;;;;;;;;;;;;;5057752;28;19942;-90
2022/11/28 11:50:33;;;;;;;;;;;;;;;;;;5041229;28;19920;-90
2022/11/28 11:52:59;;;;;;;;;;;;;;;;;;5057684;28;19927;-91
2022/11/28 11:55:24;;;;;;;;;;;;;;;;;;5057897;28;19927;-90
2022/11/28 11:57:50;;;;;;;;;;;;;;;;;;5041049;28;20296;-88
2022/11/28 12:00:16;;;;;;;;;;;;;;;;;;5040910;28;19927;-88
2022/11/28 12:02:44;;;;;;;;;;;;;;;;;;5057659;28;19927;-89
2022/11/28 12:05:10;;;;;;;;;;;;;;;;;;5040790;28;20456;-90
2022/11/28 12:07:36;;;;;;;;;;;;;;;;;;5040966;28;19924;-90
2022/11/28 12:10:02;;;;;;;;;;;;;;;;;;5057391;28;20429;-90
2022/11/28 12:12:29;;;;;;;;;;;;;;;;;;5040873;28;20339;-90
2022/11/28 12:14:55;;;;;;;;;;;;;;;;;;5040849;28;19921;-90
2022/11/28 12:17:21;;;;;;;;;;;;;;;;;;5040384;28;19921;-92
2022/11/28 12:19:47;;;;;;;;;;;;;;;;;;5041022;28;19921;-90
2022/11/28 12:22:13;;;;;;;;;;;;;;;;;;5040819;28;19966;-88
2022/11/28 12:24:39;;;;;;;;;;;;;;;;;;5057261;28;19928;-90
2022/11/28 12:27:05;;;;;;;;;;;;;;;;;;5040960;28;19921;-88
2022/11/28 12:29:34;;;;;;;;;;;;;;;;;;5040733;28;20344;-89
2022/11/28 12:31:59;;;;;;;;;;;;;;;;;;5040321;28;19967;-89
2022/11/28 12:34:25;;;;;;;;;;;;;;;;;;5056911;28;19968;-89
2022/11/28 12:36:51;;;;;;;;;;;;;;;;;;5056554;28;20033;-90
2022/11/28 12:39:17;;;;;;;;;;;;;;;;;;5057294;28;20220;-91
2022/11/28 12:41:43;;;;;;;;;;;;;;;;;;5040531;28;20363;-91
2022/11/28 12:44:09;;;;;;;;;;;;;;;;;;5056744;28;19924;-90
2022/11/28 12:46:35;;;;;;;;;;;;;;;;;;5040229;28;19925;-91
2022/11/28 12:49:01;;;;;;;;;;;;;;;;;;5039942;28;20367;-91
2022/11/28 12:51:27;;;;;;;;;;;;;;;;;;5040336;28;20026;-91
2022/11/28 12:53:53;;;;;;;;;;;;;;;;;;5056643;28;19925;-91
2022/11/28 12:56:19;;;;;;;;;;;;;;;;;;5056587;28;19921;-91
2022/11/28 12:58:45;;;;;;;;;;;;;;;;;;5039810;28;19927;-90
2022/11/28 13:01:12;;;;;;;;;;;;;;;;;;5040108;28;19928;-90
2022/11/28 13:03:39;;;;;;;;;;;;;;;;;;5056257;28;19920;-91
2022/11/28 13:06:05;;;;;;;;;;;;;;;;;;5039777;28;19927;-90
2022/11/28 13:08:31;;;;;;;;;;;;;;;;;;5056630;28;19924;-89
2022/11/28 13:10:57;;;;;;;;;;;;;;;;;;5056184;28;20391;-90
2022/11/28 13:13:23;;;;;;;;;;;;;;;;;;5056168;28;19931;-90
2022/11/28 13:15:49;;;;;;;;;;;;;;;;;;5056328;28;19921;-89
2022/11/28 13:18:15;;;;;;;;;;;;;;;;;;5039327;28;20023;-90
2022/11/28 13:20:41;;;;;;;;;;;;;;;;;;5039280;28;20086;-89
2022/11/28 13:23:07;;;;;;;;;;;;;;;;;;5056040;28;19964;-90
2022/11/28 13:25:33;;;;;;;;;;;;;;;;;;5039246;28;20418;-90
2022/11/28 13:27:59;;;;;;;;;;;;;;;;;;5056485;28;20324;-90
2022/11/28 13:30:25;;;;;;;;;;;;;;;;;;5039244;28;19921;-91
2022/11/28 13:32:51;;;;;;;;;;;;;;;;;;5055640;28;19921;-89
2022/11/28 13:35:17;;;;;;;;;;;;;;;;;;5055764;28;19920;-90
2022/11/28 13:37:43;;;;;;;;;;;;;;;;;;5055731;28;20329;-90
2022/11/28 13:40:10;;;;;;;;;;;;;;;;;;5055558;28;20424;-89
2022/11/28 13:42:36;;;;;;;;;;;;;;;;;;5038992;28;19927;-91
2022/11/28 13:45:06;;;;;;;;;;;;;;;;;;5055212;28;19929;-93
2022/11/28 13:47:33;;;;;;;;;;;;;;;;;;5038775;28;19930;-92
2022/11/28 13:49:59;;;;;;;;;;;;;;;;;;5038602;28;20108;-92
2022/11/28 13:52:28;;;;;;;;;;;;;;;;;;5038739;28;20015;-88
2022/11/28 13:54:54;;;;;;;;;;;;;;;;;;5055337;28;20405;-91
2022/11/28 13:57:20;;;;;;;;;;;;;;;;;;5039243;28;19920;-89
2022/11/28 13:59:46;;;;;;;;;;;;;;;;;;5055172;28;19927;-91
2022/11/28 14:02:11;;;;;;;;;;;;;;;;;;5038575;28;20341;-91
2022/11/28 14:04:37;;;;;;;;;;;;;;;;;;5055865;28;20310;-91
2022/11/28 14:07:03;;;;;;;;;;;;;;;;;;5038877;28;19934;-91
2022/11/28 14:09:29;;;;;;;;;;;;;;;;;;5038507;28;19927;-91
2022/11/28 14:11:55;;;;;;;;;;;;;;;;;;5038490;28;19928;-91
2022/11/28 14:14:21;;;;;;;;;;;;;;;;;;5055110;28;19927;-91
2022/11/28 14:16:47;;;;;;;;;;;;;;;;;;5038326;28;19973;-91
2022/11/28 14:19:13;;;;;;;;;;;;;;;;;;5054912;28;20413;-90
2022/11/28 14:21:39;;;;;;;;;;;;;;;;;;5038133;28;20327;-90
2022/11/28 14:24:05;;;;;;;;;;;;;;;;;;5038158;28;19920;-90
2022/11/28 14:26:31;;;;;;;;;;;;;;;;;;5054723;28;19929;-90
2022/11/28 14:28:56;;;;;;;;;;;;;;;;;;5054652;28;19920;-90
2022/11/28 14:31:22;;;;;;;;;;;;;;;;;;5055454;28;19944;-90
2022/11/28 14:33:48;;;;;;;;;;;;;;;;;;5038322;28;19986;-90
2022/11/28 14:36:14;;;;;;;;;;;;;;;;;;5038155;28;20077;-90
2022/11/28 14:38:40;;;;;;;;;;;;;;;;;;5055060;28;19969;-90
2022/11/28 14:41:10;;;;;;;;;;;;;;;;;;5038526;28;19921;-90
2022/11/28 14:43:36;;;;;;;;;;;;;;;;;;5054700;28;20131;-90
2022/11/28 14:46:02;;;;;;;;;;;;;;;;;;5054609;28;19937;-89
2022/11/28 14:48:31;;;;;;;;;;;;;;;;;;5055357;28;19920;-90
2022/11/28 14:50:57;;;;;;;;;;;;;;;;;;5054663;28;19943;-90
2022/11/28 14:53:23;;;;;;;;;;;;;;;;;;5054958;28;19924;-89
2022/11/28 14:55:49;;;;;;;;;;;;;;;;;;5054908;28;19928;-90
2022/11/28 14:58:15;;;;;;;;;;;;;;;;;;5040167;28;20341;-91
2022/11/28 15:00:42;;;;;;;;;;;;;;;;;;5057580;28;20360;-89
2022/11/28 15:03:08;;;;;;;;;;;;;;;;;;5053270;28;19919;-90
2022/11/28 15:05:34;;;;;;;;;;;;;;;;;;5062501;28;19968;-90
2022/11/28 15:08:00;;;;;;;;;;;;;;;;;;5061971;28;19950;-90
2022/11/28 15:10:26;;;;;;;;;;;;;;;;;;5057647;28;19920;-90
2022/11/28 15:12:52;;;;;;;;;;;;;;;;;;5054610;28;19924;-91
2022/11/28 15:15:19;;;;;;;;;;;;;;;;;;5037766;28;19951;-89
2022/11/28 15:17:45;;;;;;;;;;;;;;;;;;5037613;28;19969;-90
2022/11/28 15:20:11;;;;;;;;;;;;;;;;;;5037647;28;20014;-91
2022/11/28 15:22:37;;;;;;;;;;;;;;;;;;5037657;28;19920;-90
2022/11/28 15:25:03;;;;;;;;;;;;;;;;;;5052542;28;20268;-89
2022/11/28 15:27:29;;;;;;;;;;;;;;;;;;5053832;28;19925;-90
2022/11/28 15:29:55;;;;;;;;;;;;;;;;;;5054322;28;20062;-89
2022/11/28 15:32:21;;;;;;;;;;;;;;;;;;5054252;28;20375;-90
2022/11/28 15:34:46;;;;;;;;;;;;;;;;;;5037303;28;19973;-89
2022/11/28 15:37:12;;;;;;;;;;;;;;;;;;5037315;28;19936;-90
2022/11/28 15:39:38;;;;;;;;;;;;;;;;;;5037213;28;19921;-89
2022/11/28 15:42:04;;;;;;;;;;;;;;;;;;5053678;28;19928;-89
2022/11/28 15:44:30;;;;;;;;;;;;;;;;;;5036701;28;20341;-90
2022/11/28 15:46:56;;;;;;;;;;;;;;;;;;5053968;28;20342;-90
2022/11/28 15:49:22;;;;;;;;;;;;;;;;;;5037210;28;20225;-90
2022/11/28 15:51:48;;;;;;;;;;;;;;;;;;5053747;28;20012;-91
2022/11/28 15:54:14;;;;;;;;;;;;;;;;;;5037450;28;19920;-91
2022/11/28 15:56:40;;;;;;;;;;;;;;;;;;5054014;28;20509;-91
2022/11/28 15:59:06;;;;;;;;;;;;;;;;;;5053844;28;20003;-92
2022/11/28 16:01:31;;;;;;;;;;;;;;;;;;5037139;28;19924;-90
2022/11/28 16:03:57;;;;;;;;;;;;;;;;;;5053901;28;19940;-88
2022/11/28 16:06:23;;;;;;;;;;;;;;;;;;5036996;28;20441;-89
2022/11/28 16:08:49;;;;;;;;;;;;;;;;;;5037031;28;19990;-88
2022/11/28 16:11:15;;;;;;;;;;;;;;;;;;5053465;28;20029;-89
2022/11/28 16:13:42;;;;;;;;;;;;;;;;;;5039768;28;19920;-90
2022/11/28 16:16:08;;;;;;;;;;;;;;;;;;5057305;28;19920;-89
2022/11/28 16:18:34;;;;;;;;;;;;;;;;;;5040529;28;20019;-90
2022/11/28 16:20:59;;;;;;;;;;;;;;;;;;5057287;28;19968;-93
2022/11/28 16:23:25;;;;;;;;;;;;;;;;;;5057169;28;19921;-90
2022/11/28 16:25:51;;;;;;;;;;;;;;;;;;5040701;28;19987;-93
2022/11/28 16:28:17;;;;;;;;;;;;;;;;;;5057639;28;20088;-90
2022/11/28 16:30:46;;;;;;;;;;;;;;;;;;5043786;28;19930;-90
2022/11/28 16:33:12;;;;;;;;;;;;;;;;;;5042522;28;19920;-90
2022/11/28 16:35:39;;;;;;;;;;;;;;;;;;5056803;28;19920;-89
2022/11/28 16:38:05;;;;;;;;;;;;;;;;;;5040210;28;19920;-92
2022/11/28 16:40:31;;;;;;;;;;;;;;;;;;5040187;28;19924;-90
2022/11/28 16:43:03;;;;;;;;;;;;;;;;;;5057162;28;20264;-90